createdAt,value
2022-07-28T00:00:37.552Z,1.81
2022-07-28T00:03:04.200Z,1.76
2022-07-28T00:05:30.639Z,1.80
2022-07-28T00:07:57.451Z,1.74
2022-07-28T00:10:23.891Z,1.76
2022-07-28T00:12:50.267Z,1.88
2022-07-28T00:15:16.680Z,1.91
2022-07-28T00:17:43.093Z,1.79
2022-07-28T00:20:09.505Z,1.79
2022-07-28T00:22:35.898Z,1.97
2022-07-28T00:25:02.435Z,1.79
2022-07-28T00:27:28.825Z,1.77
2022-07-28T00:29:55.265Z,1.83
2022-07-28T00:32:21.719Z,1.83
2022-07-28T00:34:48.266Z,1.79
2022-07-28T00:37:15.166Z,1.90
2022-07-28T00:39:41.744Z,1.95
2022-07-28T00:42:08.139Z,2.10
2022-07-28T00:44:34.521Z,1.88
2022-07-28T00:47:01.009Z,1.97
2022-07-28T00:49:27.452Z,1.89
2022-07-28T00:51:53.838Z,1.84
2022-07-28T00:54:20.277Z,1.90
2022-07-28T00:56:46.671Z,1.99
2022-07-28T00:59:13.121Z,1.97
2022-07-28T01:01:39.626Z,2.02
2022-07-28T01:04:06.075Z,1.88
2022-07-28T01:06:32.494Z,1.59
2022-07-28T01:08:59.048Z,1.77
2022-07-28T01:11:25.419Z,1.78
2022-07-28T01:13:51.814Z,1.78
2022-07-28T01:16:18.398Z,1.99
2022-07-28T01:18:50.097Z,1.94
2022-07-28T01:21:16.510Z,1.93
2022-07-28T01:23:42.955Z,1.99
2022-07-28T01:26:09.386Z,1.97
2022-07-28T01:28:35.808Z,1.96
2022-07-28T01:31:02.328Z,1.85
2022-07-28T01:33:28.744Z,1.83
2022-07-28T01:35:55.118Z,1.81
2022-07-28T01:38:21.542Z,2.01
2022-07-28T01:40:48.261Z,1.94
2022-07-28T01:43:16.756Z,1.86
2022-07-28T01:45:43.216Z,1.77
2022-07-28T01:48:09.583Z,1.79
2022-07-28T01:50:35.976Z,1.75
2022-07-28T01:53:02.421Z,1.96
2022-07-28T01:55:28.803Z,1.93
2022-07-28T01:57:55.185Z,1.99
2022-07-28T02:00:21.736Z,1.93
2022-07-28T02:02:48.342Z,2.00
2022-07-28T02:05:14.817Z,1.85
2022-07-28T02:07:41.851Z,1.84
2022-07-28T02:10:08.234Z,2.04
2022-07-28T02:12:34.619Z,2.04
2022-07-28T02:15:01.034Z,2.05
2022-07-28T02:17:27.455Z,2.01
2022-07-28T02:19:53.866Z,1.84
2022-07-28T02:22:20.288Z,1.91
2022-07-28T02:24:46.670Z,1.80
2022-07-28T02:27:13.061Z,1.88
2022-07-28T02:29:50.746Z,2.00
2022-07-28T02:32:27.079Z,1.94
2022-07-28T02:34:54.847Z,2.07
2022-07-28T02:37:22.749Z,1.80
2022-07-28T02:39:56.535Z,1.93
2022-07-28T02:42:27.241Z,1.82
2022-07-28T02:44:53.641Z,1.82
2022-07-28T02:47:20.015Z,2.04
2022-07-28T02:49:46.573Z,1.88
2022-07-28T02:52:12.949Z,1.93
2022-07-28T02:54:39.344Z,1.76
2022-07-28T02:57:05.880Z,1.79
2022-07-28T02:59:32.280Z,1.84
2022-07-28T03:01:58.720Z,1.76
2022-07-28T03:04:25.269Z,1.91
2022-07-28T03:06:51.664Z,1.88
2022-07-28T03:09:18.040Z,1.86
2022-07-28T03:11:44.594Z,1.91
2022-07-28T03:14:11.067Z,1.91
2022-07-28T03:16:37.743Z,2.08
2022-07-28T03:19:05.720Z,1.90
2022-07-28T03:21:32.126Z,1.93
2022-07-28T03:23:58.529Z,1.86
2022-07-28T03:26:24.966Z,1.93
2022-07-28T03:28:51.353Z,1.74
2022-07-28T03:31:17.830Z,1.90
2022-07-28T03:33:44.311Z,1.95
2022-07-28T03:36:10.704Z,2.05
2022-07-28T03:38:37.080Z,2.00
2022-07-28T03:41:03.492Z,1.94
2022-07-28T03:43:29.880Z,2.06
2022-07-28T03:45:56.344Z,2.08
2022-07-28T03:48:22.851Z,2.02
2022-07-28T03:50:49.218Z,1.81
2022-07-28T03:53:15.589Z,1.88
2022-07-28T03:55:42.004Z,2.01
2022-07-28T03:58:08.398Z,1.91
2022-07-28T04:00:34.781Z,2.02
2022-07-28T04:03:01.199Z,2.11
2022-07-28T04:05:27.587Z,2.13
2022-07-28T04:07:54.002Z,1.83
2022-07-28T04:10:20.466Z,1.95
2022-07-28T04:12:46.877Z,1.91
2022-07-28T04:15:13.279Z,1.84
2022-07-28T04:17:39.816Z,2.10
2022-07-28T04:20:06.194Z,1.95
2022-07-28T04:22:32.583Z,2.06
2022-07-28T04:24:59.136Z,1.89
2022-07-28T04:27:25.511Z,2.01
2022-07-28T04:29:51.971Z,2.28
2022-07-28T04:32:18.429Z,2.11
2022-07-28T04:34:44.827Z,1.95
2022-07-28T04:37:11.287Z,2.06
2022-07-28T04:39:37.701Z,1.93
2022-07-28T04:42:04.091Z,1.92
2022-07-28T04:44:30.475Z,2.09
2022-07-28T04:46:56.936Z,1.94
2022-07-28T04:49:23.380Z,2.05
2022-07-28T04:51:49.855Z,2.12
2022-07-28T04:54:16.794Z,2.01
2022-07-28T04:56:43.368Z,2.09
2022-07-28T04:59:09.985Z,1.99
2022-07-28T05:01:36.975Z,1.92
2022-07-28T05:04:03.391Z,2.10
2022-07-28T05:06:29.785Z,1.99
2022-07-28T05:08:56.242Z,2.14
2022-07-28T05:11:22.632Z,2.31
2022-07-28T05:13:49.021Z,2.13
2022-07-28T05:16:15.489Z,2.10
2022-07-28T05:18:41.935Z,2.21
2022-07-28T05:21:08.325Z,2.19
2022-07-28T05:23:34.755Z,2.09
2022-07-28T05:26:01.485Z,2.14
2022-07-28T05:28:27.873Z,2.26
2022-07-28T05:30:54.347Z,2.18
2022-07-28T05:33:20.761Z,2.32
2022-07-28T05:35:47.154Z,2.28
2022-07-28T05:38:13.647Z,2.17
2022-07-28T05:40:40.244Z,2.13
2022-07-28T05:43:06.650Z,2.17
2022-07-28T05:45:33.165Z,2.31
2022-07-28T05:47:59.585Z,2.11
2022-07-28T05:50:26.046Z,1.98
2022-07-28T05:52:52.505Z,2.10
2022-07-28T05:55:18.902Z,2.28
2022-07-28T05:57:45.286Z,2.08
2022-07-28T06:00:11.750Z,2.20
2022-07-28T06:02:38.209Z,2.25
2022-07-28T06:05:04.696Z,2.13
2022-07-28T06:07:42.955Z,2.07
2022-07-28T06:10:10.621Z,2.13
2022-07-28T06:12:37.101Z,2.10
2022-07-28T06:15:03.479Z,2.08
2022-07-28T06:17:29.875Z,2.18
2022-07-28T06:19:56.356Z,2.13
2022-07-28T06:22:22.774Z,2.16
2022-07-28T06:24:49.177Z,2.11
2022-07-28T06:27:15.646Z,2.08
2022-07-28T06:29:42.028Z,2.07
2022-07-28T06:32:08.545Z,2.05
2022-07-28T06:34:35.097Z,2.15
2022-07-28T06:37:01.495Z,2.24
2022-07-28T06:39:27.934Z,2.04
2022-07-28T06:41:54.413Z,2.42
2022-07-28T06:44:20.908Z,2.19
2022-07-28T06:46:47.339Z,2.12
2022-07-28T06:49:14.075Z,2.15
2022-07-28T06:51:40.908Z,2.46
2022-07-28T06:54:11.237Z,2.58
2022-07-28T06:56:38.154Z,2.09
2022-07-28T06:59:04.666Z,2.12
2022-07-28T07:01:31.091Z,2.21
2022-07-28T07:03:57.859Z,1.96
2022-07-28T07:06:24.296Z,2.20
2022-07-28T07:08:50.695Z,2.22
2022-07-28T07:11:17.161Z,2.16
2022-07-28T07:13:43.684Z,2.36
2022-07-28T07:16:10.163Z,2.33
2022-07-28T07:18:36.641Z,2.40
2022-07-28T07:21:03.114Z,2.27
2022-07-28T07:23:29.505Z,2.15
2022-07-28T07:25:56.001Z,2.37
2022-07-28T07:28:22.397Z,2.15
2022-07-28T07:30:48.960Z,2.52
2022-07-28T07:33:15.524Z,2.37
2022-07-28T07:35:41.940Z,2.45
2022-07-28T07:38:08.340Z,2.36
2022-07-28T07:40:34.775Z,2.35
2022-07-28T07:43:01.174Z,2.33
2022-07-28T07:45:27.652Z,2.46
2022-07-28T07:47:54.283Z,2.39
2022-07-28T07:50:20.676Z,2.76
2022-07-28T07:52:47.133Z,2.82
2022-07-28T07:55:13.568Z,2.79
2022-07-28T07:57:40.293Z,2.90
2022-07-28T08:00:06.688Z,3.11
2022-07-28T08:02:33.190Z,3.06
2022-07-28T08:04:59.619Z,3.12
2022-07-28T08:07:26.106Z,2.65
2022-07-28T08:09:52.580Z,2.60
2022-07-28T08:12:24.682Z,2.59
2022-07-28T08:14:51.873Z,2.43
2022-07-28T08:17:22.118Z,2.68
2022-07-28T08:19:51.533Z,2.72
2022-07-28T08:22:18.185Z,2.48
2022-07-28T08:24:44.588Z,2.47
2022-07-28T08:27:10.990Z,2.67
2022-07-28T08:29:37.408Z,2.46
2022-07-28T08:32:03.833Z,2.54
2022-07-28T08:34:32.982Z,2.47
2022-07-28T08:37:00.428Z,2.66
2022-07-28T08:39:26.896Z,2.88
2022-07-28T08:41:53.289Z,2.71
2022-07-28T08:44:19.759Z,2.48
2022-07-28T08:46:46.220Z,2.48
2022-07-28T08:49:12.768Z,2.66
2022-07-28T08:51:41.440Z,2.44
2022-07-28T08:54:07.889Z,2.48
2022-07-28T08:56:34.392Z,2.52
2022-07-28T08:59:00.919Z,2.38
2022-07-28T09:01:38.864Z,2.54
2022-07-28T09:04:06.224Z,2.90
2022-07-28T09:06:33.722Z,2.73
2022-07-28T09:09:00.239Z,2.73
2022-07-28T09:11:26.749Z,2.67
2022-07-28T09:13:54.163Z,2.59
2022-07-28T09:16:20.737Z,2.77
2022-07-28T09:18:47.237Z,2.39
2022-07-28T09:21:13.633Z,2.55
2022-07-28T09:23:43.674Z,2.48
2022-07-28T09:26:12.090Z,2.62
2022-07-28T09:28:38.942Z,2.67
2022-07-28T09:31:05.461Z,2.61
2022-07-28T09:33:41.902Z,2.53
2022-07-28T09:36:09.782Z,2.63
2022-07-28T09:38:36.310Z,2.70
2022-07-28T09:41:02.830Z,2.69
2022-07-28T09:43:29.353Z,2.56
2022-07-28T09:45:55.945Z,2.46
2022-07-28T09:48:22.552Z,2.57
2022-07-28T09:50:49.111Z,2.45
2022-07-28T09:53:15.572Z,2.66
2022-07-28T09:55:42.013Z,2.51
2022-07-28T09:58:08.590Z,2.54
2022-07-28T10:00:35.724Z,2.47
2022-07-28T10:03:02.179Z,2.52
2022-07-28T10:05:28.726Z,2.59
2022-07-28T10:07:55.231Z,2.78
2022-07-28T10:10:21.659Z,2.60
2022-07-28T10:12:48.123Z,2.65
2022-07-28T10:15:14.578Z,2.35
2022-07-28T10:17:40.978Z,2.30
2022-07-28T10:20:07.486Z,2.72
2022-07-28T10:22:33.975Z,2.56
2022-07-28T10:25:00.643Z,2.47
2022-07-28T10:27:27.035Z,2.49
2022-07-28T10:29:53.480Z,2.40
2022-07-28T10:32:19.936Z,2.50
2022-07-28T10:34:46.600Z,2.52
2022-07-28T10:37:13.108Z,2.59
2022-07-28T10:39:39.525Z,2.70
2022-07-28T10:42:05.939Z,2.75
2022-07-28T10:44:32.499Z,2.62
2022-07-28T10:46:58.960Z,2.50
2022-07-28T10:49:27.670Z,2.50
2022-07-28T10:52:02.402Z,2.72
2022-07-28T10:54:35.568Z,2.50
2022-07-28T10:57:04.824Z,2.53
2022-07-28T10:59:31.536Z,2.45
2022-07-28T11:01:58.060Z,2.66
2022-07-28T11:04:29.070Z,2.63
2022-07-28T11:06:55.956Z,2.90
2022-07-28T11:09:22.418Z,2.78
2022-07-28T11:11:48.905Z,2.69
2022-07-28T11:14:15.567Z,2.73
2022-07-28T11:16:44.011Z,2.62
2022-07-28T11:19:46.776Z,2.44
2022-07-28T11:21:57.545Z,2.35
2022-07-28T11:24:23.978Z,2.53
2022-07-28T11:26:50.386Z,2.47
2022-07-28T11:29:16.847Z,2.62
2022-07-28T11:31:43.308Z,2.36
2022-07-28T11:34:09.704Z,2.44
2022-07-28T11:36:36.120Z,2.49
2022-07-28T11:39:02.692Z,2.49
2022-07-28T11:41:29.110Z,2.51
2022-07-28T11:43:56.918Z,2.36
2022-07-28T11:46:24.674Z,2.32
2022-07-28T11:48:51.215Z,2.46
2022-07-28T11:51:17.719Z,2.35
2022-07-28T11:53:44.186Z,2.38
2022-07-28T11:56:10.639Z,2.61
2022-07-28T11:58:37.024Z,2.58
2022-07-28T12:01:03.602Z,2.54
2022-07-28T12:03:38.517Z,2.63
2022-07-28T12:06:16.947Z,2.32
2022-07-28T12:08:55.317Z,2.58
2022-07-28T12:11:22.709Z,2.59
2022-07-28T12:13:49.138Z,2.38
2022-07-28T12:16:15.589Z,2.58
2022-07-28T12:18:43.070Z,2.56
2022-07-28T12:21:10.487Z,2.47
2022-07-28T12:23:45.516Z,2.56
2022-07-28T12:26:12.694Z,2.38
2022-07-28T12:28:39.507Z,2.40
2022-07-28T12:31:05.900Z,2.55
2022-07-28T12:33:35.609Z,2.46
2022-07-28T12:36:02.040Z,2.34
2022-07-28T12:38:28.451Z,2.49
2022-07-28T12:40:54.952Z,2.51
2022-07-28T12:43:21.354Z,2.37
2022-07-28T12:45:47.819Z,2.38
2022-07-28T12:48:14.339Z,2.15
2022-07-28T12:50:40.762Z,2.30
2022-07-28T12:53:07.158Z,2.56
2022-07-28T12:55:33.611Z,2.33
2022-07-28T12:58:00.034Z,2.33
2022-07-28T13:00:26.478Z,2.21
2022-07-28T13:02:53.004Z,2.45
2022-07-28T13:05:21.792Z,2.27
2022-07-28T13:07:48.189Z,2.33
2022-07-28T13:10:14.813Z,2.14
2022-07-28T13:12:41.199Z,2.06
2022-07-28T13:15:07.593Z,2.13
2022-07-28T13:17:34.212Z,2.15
2022-07-28T13:20:00.632Z,1.95
2022-07-28T13:22:27.032Z,2.24
2022-07-28T13:24:53.519Z,2.14
2022-07-28T13:27:19.913Z,2.26
2022-07-28T13:29:46.293Z,2.27
2022-07-28T13:32:12.871Z,2.25
2022-07-28T13:34:39.487Z,2.16
2022-07-28T13:37:05.872Z,2.44
2022-07-28T13:39:32.391Z,2.43
2022-07-28T13:41:59.382Z,2.28
2022-07-28T13:44:25.981Z,2.18
2022-07-28T13:46:52.536Z,2.19
2022-07-28T13:49:21.498Z,2.19
2022-07-28T13:51:48.119Z,2.21
2022-07-28T13:54:14.854Z,2.18
2022-07-28T13:56:43.251Z,2.39
2022-07-28T13:59:09.746Z,2.37
2022-07-28T14:01:39.877Z,2.49
2022-07-28T14:04:07.188Z,2.53
2022-07-28T14:06:33.594Z,2.77
2022-07-28T14:09:00.023Z,2.48
2022-07-28T14:11:34.666Z,2.42
2022-07-28T14:14:03.166Z,2.51
2022-07-28T14:16:32.712Z,2.33
2022-07-28T14:18:59.265Z,2.46
2022-07-28T14:21:28.873Z,2.55
2022-07-28T14:23:55.297Z,2.65
2022-07-28T14:26:35.483Z,2.73
2022-07-28T14:29:02.698Z,2.40
2022-07-28T14:31:29.141Z,2.46
2022-07-28T14:33:56.682Z,2.45
2022-07-28T14:36:23.125Z,2.64
2022-07-28T14:38:53.408Z,2.48
2022-07-28T14:41:20.893Z,2.35
2022-07-28T14:43:47.441Z,2.29
2022-07-28T14:46:20.715Z,2.40
2022-07-28T14:48:48.114Z,2.31
2022-07-28T14:51:14.618Z,2.16
2022-07-28T14:53:43.233Z,2.46
2022-07-28T14:56:11.834Z,2.30
2022-07-28T14:58:38.834Z,2.44
2022-07-28T15:01:05.256Z,2.64
2022-07-28T15:03:36.242Z,2.59
2022-07-28T15:06:03.062Z,2.59
2022-07-28T15:08:29.670Z,2.14
2022-07-28T15:10:56.146Z,2.14
2022-07-28T15:13:22.601Z,2.16
2022-07-28T15:15:49.097Z,2.15
2022-07-28T15:18:15.593Z,2.20
2022-07-28T15:20:41.995Z,2.31
2022-07-28T15:23:08.390Z,2.22
2022-07-28T15:25:36.912Z,2.50
2022-07-28T15:28:03.313Z,2.33
2022-07-28T15:30:29.689Z,2.38
2022-07-28T15:32:57.281Z,2.21
2022-07-28T15:35:23.848Z,2.20
2022-07-28T15:37:50.278Z,2.18
2022-07-28T15:40:16.761Z,2.30
2022-07-28T15:42:43.151Z,2.09
2022-07-28T15:45:09.533Z,2.12
2022-07-28T15:47:35.981Z,2.04
2022-07-28T15:50:02.378Z,2.06
2022-07-28T15:52:28.809Z,2.04
2022-07-28T15:54:55.265Z,2.15
2022-07-28T15:57:21.726Z,2.34
2022-07-28T15:59:48.758Z,1.99
2022-07-28T16:02:17.756Z,1.90
2022-07-28T16:04:49.984Z,1.99
2022-07-28T16:07:22.418Z,1.87
2022-07-28T16:09:48.948Z,1.93
2022-07-28T16:12:15.343Z,1.85
2022-07-28T16:14:42.228Z,1.98
2022-07-28T16:17:08.797Z,1.93
2022-07-28T16:19:48.433Z,1.98
2022-07-28T16:22:15.616Z,1.95
2022-07-28T16:24:42.125Z,1.89
2022-07-28T16:27:08.547Z,1.68
2022-07-28T16:29:35.012Z,1.65
2022-07-28T16:32:04.494Z,1.86
2022-07-28T16:34:30.898Z,1.64
2022-07-28T16:36:57.386Z,1.65
2022-07-28T16:39:23.803Z,1.76
2022-07-28T16:41:50.237Z,1.71
2022-07-28T16:44:17.059Z,1.44
2022-07-28T16:46:44.053Z,1.75
2022-07-28T16:49:10.602Z,1.64
2022-07-28T16:51:37.129Z,1.59
2022-07-28T16:54:03.538Z,1.67
2022-07-28T16:56:29.928Z,1.69
2022-07-28T16:58:56.389Z,1.81
2022-07-28T17:01:22.812Z,1.69
2022-07-28T17:03:52.028Z,1.74
2022-07-28T17:06:18.479Z,1.62
2022-07-28T17:08:44.867Z,1.76
2022-07-28T17:11:11.257Z,1.54
2022-07-28T17:13:40.882Z,1.51
2022-07-28T17:16:11.352Z,1.63
2022-07-28T17:18:37.865Z,1.58
2022-07-28T17:21:04.246Z,1.61
2022-07-28T17:23:30.680Z,1.47
2022-07-28T17:27:12.945Z,1.38
2022-07-28T17:28:47.432Z,1.58
2022-07-28T17:31:13.905Z,1.52
2022-07-28T17:33:40.314Z,1.56
2022-07-28T17:36:06.924Z,1.51
2022-07-28T17:38:33.589Z,1.47
2022-07-28T17:41:00.004Z,1.34
2022-07-28T17:43:26.386Z,1.42
2022-07-28T17:45:52.873Z,1.32
2022-07-28T17:48:19.267Z,1.53
2022-07-28T17:50:45.670Z,1.51
2022-07-28T17:53:12.100Z,1.49
2022-07-28T17:56:00.550Z,1.43
2022-07-28T17:58:28.109Z,1.42
2022-07-28T18:00:54.677Z,1.57
2022-07-28T18:03:21.121Z,1.80
2022-07-28T18:05:47.603Z,1.57
2022-07-28T18:08:13.972Z,1.74
2022-07-28T18:10:40.348Z,1.74
2022-07-28T18:13:06.766Z,1.64
2022-07-28T18:15:33.184Z,1.38
2022-07-28T18:17:59.579Z,1.50
2022-07-28T18:20:26.013Z,1.59
2022-07-28T18:22:52.429Z,1.63
2022-07-28T18:25:18.826Z,1.61
2022-07-28T18:27:45.255Z,1.63
2022-07-28T18:30:11.646Z,1.50
2022-07-28T18:32:38.052Z,1.59
2022-07-28T18:35:04.470Z,1.61
2022-07-28T18:37:31.123Z,1.55
2022-07-28T18:39:57.557Z,1.55
2022-07-28T18:42:24.019Z,1.45
2022-07-28T18:44:50.418Z,1.63
2022-07-28T18:47:16.812Z,1.64
2022-07-28T18:49:43.393Z,1.60
2022-07-28T18:52:09.868Z,1.62
2022-07-28T18:54:36.232Z,1.58
2022-07-28T18:57:02.752Z,1.53
2022-07-28T18:59:29.157Z,1.57
2022-07-28T19:01:55.607Z,1.62
2022-07-28T19:04:22.130Z,1.57
2022-07-28T19:06:48.513Z,1.91
2022-07-28T19:09:14.912Z,1.54
2022-07-28T19:11:45.909Z,1.75
2022-07-28T19:14:13.370Z,1.65
2022-07-28T19:16:40.022Z,1.67
2022-07-28T19:19:06.562Z,1.61
2022-07-28T19:21:32.951Z,1.68
2022-07-28T19:23:59.338Z,1.60
2022-07-28T19:26:25.768Z,1.70
2022-07-28T19:28:52.146Z,1.62
2022-07-28T19:31:18.630Z,1.48
2022-07-28T19:33:46.176Z,1.53
2022-07-28T19:36:12.591Z,1.60
2022-07-28T19:38:38.989Z,1.56
2022-07-28T19:41:05.410Z,1.60
2022-07-28T19:43:31.784Z,1.52
2022-07-28T19:45:58.228Z,1.59
2022-07-28T19:48:24.650Z,1.46
2022-07-28T19:50:51.313Z,1.46
2022-07-28T19:53:17.750Z,1.43
2022-07-28T19:55:50.806Z,1.75
2022-07-28T19:58:17.974Z,1.47
2022-07-28T20:00:44.417Z,1.44
2022-07-28T20:03:13.465Z,1.60
2022-07-28T20:05:57.427Z,1.61
2022-07-28T20:08:23.823Z,1.63
2022-07-28T20:10:50.196Z,1.62
2022-07-28T20:13:16.631Z,1.67
2022-07-28T20:15:43.021Z,1.51
2022-07-28T20:18:09.454Z,1.61
2022-07-28T20:20:35.904Z,1.76
2022-07-28T20:23:02.320Z,1.70
2022-07-28T20:25:28.725Z,1.56
2022-07-28T20:27:55.166Z,1.66
2022-07-28T20:30:21.600Z,1.67
2022-07-28T20:32:48.029Z,1.63
2022-07-28T20:35:15.484Z,1.56
2022-07-28T20:37:41.855Z,1.77
2022-07-28T20:40:08.239Z,1.65
2022-07-28T20:42:34.654Z,1.60
2022-07-28T20:45:01.046Z,1.54
2022-07-28T20:47:27.429Z,1.66
2022-07-28T20:49:53.864Z,1.64
2022-07-28T20:52:20.262Z,1.55
2022-07-28T20:54:50.606Z,1.55
2022-07-28T20:57:20.181Z,1.48
2022-07-28T20:59:46.568Z,1.64
2022-07-28T21:02:12.995Z,1.71
2022-07-28T21:04:39.483Z,1.71
2022-07-28T21:07:05.871Z,1.77
2022-07-28T21:09:32.872Z,1.59
2022-07-28T21:11:59.342Z,1.74
2022-07-28T21:14:25.729Z,1.59
2022-07-28T21:16:52.285Z,1.64
2022-07-28T21:19:18.790Z,1.50
2022-07-28T21:21:45.213Z,1.54
2022-07-28T21:24:11.596Z,1.61
2022-07-28T21:26:38.072Z,1.66
2022-07-28T21:29:04.470Z,1.57
2022-07-28T21:31:30.863Z,1.62
2022-07-28T21:33:57.299Z,1.59
2022-07-28T21:36:23.709Z,1.53
2022-07-28T21:38:50.094Z,1.72
2022-07-28T21:41:16.512Z,1.69
2022-07-28T21:43:42.882Z,1.56
2022-07-28T21:46:09.306Z,1.57
2022-07-28T21:48:35.797Z,1.47
2022-07-28T21:51:02.212Z,1.56
2022-07-28T21:53:30.903Z,1.70
2022-07-28T21:55:57.366Z,1.61
2022-07-28T21:58:23.766Z,1.56
2022-07-28T22:00:50.199Z,1.60
2022-07-28T22:03:16.656Z,1.48
2022-07-28T22:05:43.130Z,1.56
2022-07-28T22:08:09.525Z,1.52
2022-07-28T22:10:35.947Z,1.62
2022-07-28T22:13:02.341Z,1.67
2022-07-28T22:15:28.753Z,1.52
2022-07-28T22:17:55.189Z,1.54
2022-07-28T22:20:21.585Z,1.59
2022-07-28T22:22:47.994Z,1.54
2022-07-28T22:25:14.451Z,1.70
2022-07-28T22:27:40.834Z,1.74
2022-07-28T22:30:07.242Z,1.57
2022-07-28T22:32:33.676Z,1.56
2022-07-28T22:35:00.108Z,1.62
2022-07-28T22:37:26.541Z,1.61
2022-07-28T22:39:52.994Z,1.49
2022-07-28T22:42:19.385Z,1.54
2022-07-28T22:44:45.768Z,1.50
2022-07-28T22:47:12.200Z,1.48
2022-07-28T22:49:38.582Z,1.74
2022-07-28T22:52:04.960Z,1.62
2022-07-28T22:54:31.380Z,1.50
2022-07-28T22:56:57.758Z,1.63
2022-07-28T22:59:24.142Z,1.62
2022-07-28T23:01:51.564Z,1.59
2022-07-28T23:04:18.186Z,1.57
2022-07-28T23:06:44.923Z,1.62
2022-07-28T23:09:11.403Z,1.44
2022-07-28T23:11:37.834Z,1.55
2022-07-28T23:14:04.238Z,1.53
2022-07-28T23:16:30.736Z,1.58
2022-07-28T23:18:57.167Z,1.47
2022-07-28T23:21:23.566Z,1.51
2022-07-28T23:23:50.038Z,1.54
2022-07-28T23:26:16.432Z,1.53
2022-07-28T23:28:42.827Z,1.60
2022-07-28T23:31:11.319Z,1.66
2022-07-28T23:33:56.764Z,1.35
2022-07-28T23:36:26.623Z,1.46
2022-07-28T23:38:58.466Z,1.40
2022-07-28T23:41:24.973Z,1.62
2022-07-28T23:43:51.360Z,1.42
2022-07-28T23:46:18.085Z,1.47
2022-07-28T23:48:54.764Z,1.53
2022-07-28T23:51:21.253Z,1.63
2022-07-28T23:53:50.781Z,1.53
2022-07-28T23:56:20.805Z,1.41
2022-07-28T23:58:47.226Z,1.50
